sensor_id;sensor_type;location;lat;lon;timestamp;P1;durP1;ratioP1;P2;durP2;ratioP2
78818;SDS011;68166;55.090;37.460;2023-06-22T00:04:08;8.90;;;4.15;;
78818;SDS011;68166;55.090;37.460;2023-06-22T00:09:10;6.07;;;3.97;;
78818;SDS011;68166;55.090;37.460;2023-06-22T00:14:12;5.60;;;4.00;;
78818;SDS011;68166;55.090;37.460;2023-06-22T00:19:16;4.90;;;2.72;;
78818;SDS011;68166;55.090;37.460;2023-06-22T00:24:20;9.10;;;4.38;;
78818;SDS011;68166;55.090;37.460;2023-06-22T00:29:22;4.40;;;3.00;;
78818;SDS011;68166;55.090;37.460;2023-06-22T00:34:24;5.05;;;2.53;;
78818;SDS011;68166;55.090;37.460;2023-06-22T00:39:26;3.78;;;2.45;;
78818;SDS011;68166;55.090;37.460;2023-06-22T00:44:28;10.90;;;2.63;;
78818;SDS011;68166;55.090;37.460;2023-06-22T00:49:30;5.60;;;2.92;;
78818;SDS011;68166;55.090;37.460;2023-06-22T00:54:32;5.65;;;3.05;;
78818;SDS011;68166;55.090;37.460;2023-06-22T00:59:35;7.53;;;3.65;;
78818;SDS011;68166;55.090;37.460;2023-06-22T01:04:38;8.75;;;3.53;;
78818;SDS011;68166;55.090;37.460;2023-06-22T01:09:47;4.45;;;2.22;;
78818;SDS011;68166;55.090;37.460;2023-06-22T01:15:08;6.80;;;2.08;;
78818;SDS011;68166;55.090;37.460;2023-06-22T01:20:23;2.83;;;1.50;;
78818;SDS011;68166;55.090;37.460;2023-06-22T01:30:47;21.25;;;2.63;;
78818;SDS011;68166;55.090;37.460;2023-06-22T01:35:50;3.47;;;1.73;;
78818;SDS011;68166;55.090;37.460;2023-06-22T01:40:52;4.90;;;2.22;;
78818;SDS011;68166;55.090;37.460;2023-06-22T01:45:56;6.13;;;2.35;;
78818;SDS011;68166;55.090;37.460;2023-06-22T01:51:01;3.08;;;1.85;;
78818;SDS011;68166;55.090;37.460;2023-06-22T01:56:04;1.95;;;1.30;;
78818;SDS011;68166;55.090;37.460;2023-06-22T02:01:12;3.72;;;1.33;;
78818;SDS011;68166;55.090;37.460;2023-06-22T02:06:23;5.32;;;2.20;;
78818;SDS011;68166;55.090;37.460;2023-06-22T02:11:28;2.35;;;1.48;;
78818;SDS011;68166;55.090;37.460;2023-06-22T02:16:31;2.38;;;1.25;;
78818;SDS011;68166;55.090;37.460;2023-06-22T02:21:33;4.15;;;1.80;;
78818;SDS011;68166;55.090;37.460;2023-06-22T02:26:35;3.95;;;1.85;;
78818;SDS011;68166;55.090;37.460;2023-06-22T02:31:39;4.55;;;1.73;;
78818;SDS011;68166;55.090;37.460;2023-06-22T02:36:41;9.00;;;3.75;;
78818;SDS011;68166;55.090;37.460;2023-06-22T02:41:52;4.47;;;2.38;;
78818;SDS011;68166;55.090;37.460;2023-06-22T02:46:55;6.55;;;2.97;;
78818;SDS011;68166;55.090;37.460;2023-06-22T02:51:57;3.75;;;2.25;;
78818;SDS011;68166;55.090;37.460;2023-06-22T02:56:59;7.32;;;3.15;;
78818;SDS011;68166;55.090;37.460;2023-06-22T03:02:03;4.88;;;2.92;;
78818;SDS011;68166;55.090;37.460;2023-06-22T03:07:06;8.48;;;4.00;;
78818;SDS011;68166;55.090;37.460;2023-06-22T03:12:08;5.50;;;3.17;;
78818;SDS011;68166;55.090;37.460;2023-06-22T03:17:10;7.32;;;3.13;;
78818;SDS011;68166;55.090;37.460;2023-06-22T03:22:12;4.75;;;2.42;;
78818;SDS011;68166;55.090;37.460;2023-06-22T03:27:16;4.72;;;2.65;;
78818;SDS011;68166;55.090;37.460;2023-06-22T03:32:17;6.57;;;2.60;;
78818;SDS011;68166;55.090;37.460;2023-06-22T03:37:19;4.50;;;2.63;;
78818;SDS011;68166;55.090;37.460;2023-06-22T03:42:21;10.27;;;3.00;;
78818;SDS011;68166;55.090;37.460;2023-06-22T03:47:23;6.40;;;3.20;;
78818;SDS011;68166;55.090;37.460;2023-06-22T03:52:25;6.57;;;2.58;;
78818;SDS011;68166;55.090;37.460;2023-06-22T03:57:27;6.32;;;2.58;;
78818;SDS011;68166;55.090;37.460;2023-06-22T04:02:32;6.10;;;2.30;;
78818;SDS011;68166;55.090;37.460;2023-06-22T04:07:33;5.13;;;2.75;;
78818;SDS011;68166;55.090;37.460;2023-06-22T04:12:38;4.93;;;2.58;;
78818;SDS011;68166;55.090;37.460;2023-06-22T04:17:40;4.68;;;2.22;;
78818;SDS011;68166;55.090;37.460;2023-06-22T04:22:42;4.13;;;2.80;;
78818;SDS011;68166;55.090;37.460;2023-06-22T04:27:44;6.68;;;2.33;;
78818;SDS011;68166;55.090;37.460;2023-06-22T04:32:46;5.38;;;2.10;;
78818;SDS011;68166;55.090;37.460;2023-06-22T04:37:57;5.75;;;2.47;;
78818;SDS011;68166;55.090;37.460;2023-06-22T04:42:59;2.80;;;1.45;;
78818;SDS011;68166;55.090;37.460;2023-06-22T04:48:04;4.15;;;1.65;;
78818;SDS011;68166;55.090;37.460;2023-06-22T04:53:06;4.40;;;1.58;;
78818;SDS011;68166;55.090;37.460;2023-06-22T04:58:08;4.03;;;1.70;;
78818;SDS011;68166;55.090;37.460;2023-06-22T05:03:10;4.68;;;2.03;;
78818;SDS011;68166;55.090;37.460;2023-06-22T05:08:13;4.95;;;2.03;;
78818;SDS011;68166;55.090;37.460;2023-06-22T05:13:15;5.55;;;2.40;;
78818;SDS011;68166;55.090;37.460;2023-06-22T05:18:17;4.07;;;2.15;;
78818;SDS011;68166;55.090;37.460;2023-06-22T05:23:24;3.55;;;1.58;;
78818;SDS011;68166;55.090;37.460;2023-06-22T05:28:26;4.85;;;2.05;;
78818;SDS011;68166;55.090;37.460;2023-06-22T05:33:28;6.20;;;2.42;;
78818;SDS011;68166;55.090;37.460;2023-06-22T05:38:29;3.05;;;1.85;;
78818;SDS011;68166;55.090;37.460;2023-06-22T05:43:32;4.13;;;1.65;;
78818;SDS011;68166;55.090;37.460;2023-06-22T05:48:34;6.47;;;1.90;;
78818;SDS011;68166;55.090;37.460;2023-06-22T05:53:36;2.72;;;1.42;;
78818;SDS011;68166;55.090;37.460;2023-06-22T05:58:38;3.55;;;1.67;;
78818;SDS011;68166;55.090;37.460;2023-06-22T06:03:39;2.65;;;1.55;;
78818;SDS011;68166;55.090;37.460;2023-06-22T06:08:42;3.72;;;1.65;;
78818;SDS011;68166;55.090;37.460;2023-06-22T06:19:04;2.88;;;1.58;;
78818;SDS011;68166;55.090;37.460;2023-06-22T06:24:06;4.30;;;1.67;;
78818;SDS011;68166;55.090;37.460;2023-06-22T06:29:08;5.10;;;2.25;;
78818;SDS011;68166;55.090;37.460;2023-06-22T06:34:29;3.42;;;1.80;;
78818;SDS011;68166;55.090;37.460;2023-06-22T06:39:31;3.30;;;1.50;;
78818;SDS011;68166;55.090;37.460;2023-06-22T06:44:33;4.28;;;1.77;;
78818;SDS011;68166;55.090;37.460;2023-06-22T06:49:38;3.35;;;1.52;;
78818;SDS011;68166;55.090;37.460;2023-06-22T06:54:40;3.92;;;1.83;;
78818;SDS011;68166;55.090;37.460;2023-06-22T07:00:19;3.95;;;2.00;;
78818;SDS011;68166;55.090;37.460;2023-06-22T07:05:22;3.35;;;1.63;;
78818;SDS011;68166;55.090;37.460;2023-06-22T07:15:49;3.70;;;1.70;;
78818;SDS011;68166;55.090;37.460;2023-06-22T07:20:51;7.28;;;1.80;;
78818;SDS011;68166;55.090;37.460;2023-06-22T07:31:14;3.92;;;1.63;;
78818;SDS011;68166;55.090;37.460;2023-06-22T07:36:19;3.83;;;1.90;;
78818;SDS011;68166;55.090;37.460;2023-06-22T07:41:23;5.30;;;1.77;;
78818;SDS011;68166;55.090;37.460;2023-06-22T07:46:25;4.45;;;2.25;;
78818;SDS011;68166;55.090;37.460;2023-06-22T07:51:27;2.85;;;1.67;;
78818;SDS011;68166;55.090;37.460;2023-06-22T07:56:29;4.60;;;1.63;;
78818;SDS011;68166;55.090;37.460;2023-06-22T08:01:49;4.97;;;2.03;;
78818;SDS011;68166;55.090;37.460;2023-06-22T08:06:51;4.10;;;1.90;;
78818;SDS011;68166;55.090;37.460;2023-06-22T08:11:53;4.25;;;1.92;;
78818;SDS011;68166;55.090;37.460;2023-06-22T08:16:56;4.75;;;2.00;;
78818;SDS011;68166;55.090;37.460;2023-06-22T08:21:58;3.78;;;1.67;;
78818;SDS011;68166;55.090;37.460;2023-06-22T08:27:19;3.15;;;1.75;;
78818;SDS011;68166;55.090;37.460;2023-06-22T08:32:25;4.88;;;1.83;;
78818;SDS011;68166;55.090;37.460;2023-06-22T08:37:28;3.17;;;1.77;;
78818;SDS011;68166;55.090;37.460;2023-06-22T08:42:39;4.13;;;2.13;;
78818;SDS011;68166;55.090;37.460;2023-06-22T08:47:42;4.28;;;1.83;;
78818;SDS011;68166;55.090;37.460;2023-06-22T08:52:44;4.05;;;1.98;;
78818;SDS011;68166;55.090;37.460;2023-06-22T08:57:46;3.60;;;1.88;;
78818;SDS011;68166;55.090;37.460;2023-06-22T09:03:07;3.53;;;1.75;;
78818;SDS011;68166;55.090;37.460;2023-06-22T09:08:10;3.65;;;2.15;;
78818;SDS011;68166;55.090;37.460;2023-06-22T09:13:12;4.30;;;2.28;;
78818;SDS011;68166;55.090;37.460;2023-06-22T09:18:14;3.88;;;2.00;;
78818;SDS011;68166;55.090;37.460;2023-06-22T09:23:16;4.22;;;2.35;;
78818;SDS011;68166;55.090;37.460;2023-06-22T09:28:18;3.88;;;1.85;;
78818;SDS011;68166;55.090;37.460;2023-06-22T09:33:20;2.85;;;1.60;;
78818;SDS011;68166;55.090;37.460;2023-06-22T09:38:22;4.13;;;1.80;;
78818;SDS011;68166;55.090;37.460;2023-06-22T09:43:24;3.88;;;1.63;;
78818;SDS011;68166;55.090;37.460;2023-06-22T09:48:26;4.88;;;2.17;;
78818;SDS011;68166;55.090;37.460;2023-06-22T09:53:29;5.43;;;2.60;;
78818;SDS011;68166;55.090;37.460;2023-06-22T09:58:50;4.05;;;2.05;;
78818;SDS011;68166;55.090;37.460;2023-06-22T10:03:53;4.93;;;1.98;;
78818;SDS011;68166;55.090;37.460;2023-06-22T10:14:18;4.53;;;2.10;;
78818;SDS011;68166;55.090;37.460;2023-06-22T10:19:38;4.50;;;2.00;;
78818;SDS011;68166;55.090;37.460;2023-06-22T10:24:59;5.28;;;1.98;;
78818;SDS011;68166;55.090;37.460;2023-06-22T10:30:01;5.70;;;2.33;;
78818;SDS011;68166;55.090;37.460;2023-06-22T10:35:03;3.42;;;2.05;;
78818;SDS011;68166;55.090;37.460;2023-06-22T10:40:05;5.10;;;1.98;;
78818;SDS011;68166;55.090;37.460;2023-06-22T10:45:09;4.25;;;2.13;;
78818;SDS011;68166;55.090;37.460;2023-06-22T10:50:47;4.97;;;2.15;;
78818;SDS011;68166;55.090;37.460;2023-06-22T11:06:32;6.90;;;2.30;;
78818;SDS011;68166;55.090;37.460;2023-06-22T11:11:52;4.05;;;2.40;;
78818;SDS011;68166;55.090;37.460;2023-06-22T11:16:54;4.20;;;2.30;;
78818;SDS011;68166;55.090;37.460;2023-06-22T11:27:18;3.85;;;2.20;;
78818;SDS011;68166;55.090;37.460;2023-06-22T11:32:20;2.97;;;1.83;;
78818;SDS011;68166;55.090;37.460;2023-06-22T11:37:22;6.00;;;2.50;;
78818;SDS011;68166;55.090;37.460;2023-06-22T11:42:24;4.68;;;2.33;;
78818;SDS011;68166;55.090;37.460;2023-06-22T11:47:26;4.07;;;1.65;;
78818;SDS011;68166;55.090;37.460;2023-06-22T11:52:28;4.20;;;2.25;;
78818;SDS011;68166;55.090;37.460;2023-06-22T11:57:30;4.30;;;2.35;;
78818;SDS011;68166;55.090;37.460;2023-06-22T12:02:34;5.57;;;2.55;;
78818;SDS011;68166;55.090;37.460;2023-06-22T12:07:36;4.55;;;2.28;;
78818;SDS011;68166;55.090;37.460;2023-06-22T12:12:38;4.28;;;2.53;;
78818;SDS011;68166;55.090;37.460;2023-06-22T12:17:40;5.53;;;2.97;;
78818;SDS011;68166;55.090;37.460;2023-06-22T12:22:42;4.30;;;2.58;;
78818;SDS011;68166;55.090;37.460;2023-06-22T12:27:45;6.70;;;2.88;;
78818;SDS011;68166;55.090;37.460;2023-06-22T12:32:47;4.35;;;2.55;;
78818;SDS011;68166;55.090;37.460;2023-06-22T12:37:48;5.78;;;2.53;;
78818;SDS011;68166;55.090;37.460;2023-06-22T12:42:50;5.00;;;2.80;;
78818;SDS011;68166;55.090;37.460;2023-06-22T12:47:52;6.88;;;3.08;;
78818;SDS011;68166;55.090;37.460;2023-06-22T12:52:54;5.03;;;2.55;;
78818;SDS011;68166;55.090;37.460;2023-06-22T12:57:56;5.45;;;2.65;;
78818;SDS011;68166;55.090;37.460;2023-06-22T13:02:58;3.95;;;2.45;;
78818;SDS011;68166;55.090;37.460;2023-06-22T13:08:00;4.78;;;2.65;;
78818;SDS011;68166;55.090;37.460;2023-06-22T13:13:02;6.90;;;3.05;;
78818;SDS011;68166;55.090;37.460;2023-06-22T13:18:04;4.72;;;3.00;;
78818;SDS011;68166;55.090;37.460;2023-06-22T13:23:25;5.45;;;2.75;;
78818;SDS011;68166;55.090;37.460;2023-06-22T13:28:27;5.95;;;3.60;;
78818;SDS011;68166;55.090;37.460;2023-06-22T13:33:31;5.03;;;2.85;;
78818;SDS011;68166;55.090;37.460;2023-06-22T13:38:36;5.00;;;2.72;;
78818;SDS011;68166;55.090;37.460;2023-06-22T13:43:40;5.25;;;3.10;;
78818;SDS011;68166;55.090;37.460;2023-06-22T13:48:42;5.72;;;3.25;;
78818;SDS011;68166;55.090;37.460;2023-06-22T13:53:44;6.18;;;3.17;;
78818;SDS011;68166;55.090;37.460;2023-06-22T13:58:46;6.65;;;3.30;;
78818;SDS011;68166;55.090;37.460;2023-06-22T14:03:48;7.63;;;3.25;;
78818;SDS011;68166;55.090;37.460;2023-06-22T14:08:50;5.85;;;3.33;;
78818;SDS011;68166;55.090;37.460;2023-06-22T14:14:11;6.78;;;3.70;;
78818;SDS011;68166;55.090;37.460;2023-06-22T14:19:13;5.82;;;3.65;;
78818;SDS011;68166;55.090;37.460;2023-06-22T14:24:14;6.65;;;3.72;;
78818;SDS011;68166;55.090;37.460;2023-06-22T14:29:16;5.38;;;4.28;;
78818;SDS011;68166;55.090;37.460;2023-06-22T14:34:18;6.13;;;3.67;;
78818;SDS011;68166;55.090;37.460;2023-06-22T14:39:20;8.18;;;3.97;;
78818;SDS011;68166;55.090;37.460;2023-06-22T14:44:22;5.78;;;4.03;;
78818;SDS011;68166;55.090;37.460;2023-06-22T14:49:24;6.50;;;3.90;;
78818;SDS011;68166;55.090;37.460;2023-06-22T15:05:45;5.82;;;3.92;;
78818;SDS011;68166;55.090;37.460;2023-06-22T15:10:47;6.03;;;3.65;;
78818;SDS011;68166;55.090;37.460;2023-06-22T15:15:50;5.20;;;3.67;;
78818;SDS011;68166;55.090;37.460;2023-06-22T15:20:54;7.13;;;4.18;;
78818;SDS011;68166;55.090;37.460;2023-06-22T15:26:14;5.78;;;4.20;;
78818;SDS011;68166;55.090;37.460;2023-06-22T15:31:16;6.65;;;4.13;;
78818;SDS011;68166;55.090;37.460;2023-06-22T15:36:18;6.40;;;3.97;;
78818;SDS011;68166;55.090;37.460;2023-06-22T15:41:20;6.47;;;3.95;;
78818;SDS011;68166;55.090;37.460;2023-06-22T15:46:40;6.40;;;4.40;;
78818;SDS011;68166;55.090;37.460;2023-06-22T15:51:43;7.32;;;4.25;;
78818;SDS011;68166;55.090;37.460;2023-06-22T16:02:06;5.50;;;4.20;;
78818;SDS011;68166;55.090;37.460;2023-06-22T16:07:09;5.85;;;4.40;;
78818;SDS011;68166;55.090;37.460;2023-06-22T16:12:12;4.63;;;3.38;;
78818;SDS011;68166;55.090;37.460;2023-06-22T16:17:14;8.00;;;3.80;;
78818;SDS011;68166;55.090;37.460;2023-06-22T16:22:16;6.53;;;3.65;;
78818;SDS011;68166;55.090;37.460;2023-06-22T16:27:36;8.55;;;3.80;;
78818;SDS011;68166;55.090;37.460;2023-06-22T16:32:38;6.25;;;3.88;;
78818;SDS011;68166;55.090;37.460;2023-06-22T16:37:50;6.13;;;3.97;;
78818;SDS011;68166;55.090;37.460;2023-06-22T16:42:55;8.15;;;4.03;;
78818;SDS011;68166;55.090;37.460;2023-06-22T16:47:57;6.47;;;4.22;;
78818;SDS011;68166;55.090;37.460;2023-06-22T16:52:59;7.47;;;4.50;;
78818;SDS011;68166;55.090;37.460;2023-06-22T17:03:26;6.30;;;3.75;;
78818;SDS011;68166;55.090;37.460;2023-06-22T17:08:30;6.35;;;3.80;;
78818;SDS011;68166;55.090;37.460;2023-06-22T17:13:35;6.60;;;3.78;;
78818;SDS011;68166;55.090;37.460;2023-06-22T17:18:37;6.65;;;3.53;;
78818;SDS011;68166;55.090;37.460;2023-06-22T17:23:39;6.60;;;3.05;;
78818;SDS011;68166;55.090;37.460;2023-06-22T17:28:51;37.97;;;6.85;;
78818;SDS011;68166;55.090;37.460;2023-06-22T17:34:06;58.15;;;10.63;;
78818;SDS011;68166;55.090;37.460;2023-06-22T17:39:18;58.92;;;9.13;;
78818;SDS011;68166;55.090;37.460;2023-06-22T17:44:25;8.73;;;3.88;;
78818;SDS011;68166;55.090;37.460;2023-06-22T17:49:28;9.77;;;3.10;;
78818;SDS011;68166;55.090;37.460;2023-06-22T17:54:32;6.18;;;3.20;;
78818;SDS011;68166;55.090;37.460;2023-06-22T17:59:34;6.47;;;3.20;;
78818;SDS011;68166;55.090;37.460;2023-06-22T18:04:36;10.27;;;3.33;;
78818;SDS011;68166;55.090;37.460;2023-06-22T18:09:39;5.43;;;3.30;;
78818;SDS011;68166;55.090;37.460;2023-06-22T18:14:41;7.63;;;3.65;;
78818;SDS011;68166;55.090;37.460;2023-06-22T18:19:43;6.32;;;2.78;;
78818;SDS011;68166;55.090;37.460;2023-06-22T18:24:47;10.50;;;3.92;;
78818;SDS011;68166;55.090;37.460;2023-06-22T18:29:50;7.28;;;3.45;;
78818;SDS011;68166;55.090;37.460;2023-06-22T18:34:54;12.77;;;4.13;;
78818;SDS011;68166;55.090;37.460;2023-06-22T18:39:57;16.02;;;4.63;;
78818;SDS011;68166;55.090;37.460;2023-06-22T18:44:59;61.05;;;14.63;;
78818;SDS011;68166;55.090;37.460;2023-06-22T18:50:05;25.02;;;7.07;;
78818;SDS011;68166;55.090;37.460;2023-06-22T18:55:10;16.40;;;6.43;;
78818;SDS011;68166;55.090;37.460;2023-06-22T19:00:14;14.35;;;5.32;;
78818;SDS011;68166;55.090;37.460;2023-06-22T19:05:17;9.68;;;4.57;;
78818;SDS011;68166;55.090;37.460;2023-06-22T19:10:21;15.02;;;5.95;;
78818;SDS011;68166;55.090;37.460;2023-06-22T19:15:40;12.30;;;5.32;;
78818;SDS011;68166;55.090;37.460;2023-06-22T19:20:47;7.85;;;4.53;;
78818;SDS011;68166;55.090;37.460;2023-06-22T19:25:49;7.20;;;3.58;;
78818;SDS011;68166;55.090;37.460;2023-06-22T19:30:52;7.65;;;4.00;;
78818;SDS011;68166;55.090;37.460;2023-06-22T19:36:02;9.75;;;4.85;;
78818;SDS011;68166;55.090;37.460;2023-06-22T19:41:07;8.32;;;4.50;;
78818;SDS011;68166;55.090;37.460;2023-06-22T19:46:09;7.25;;;3.92;;
78818;SDS011;68166;55.090;37.460;2023-06-22T19:51:11;6.60;;;4.05;;
78818;SDS011;68166;55.090;37.460;2023-06-22T19:56:18;8.55;;;4.53;;
78818;SDS011;68166;55.090;37.460;2023-06-22T20:01:22;9.20;;;4.35;;
78818;SDS011;68166;55.090;37.460;2023-06-22T20:06:24;7.95;;;3.40;;
78818;SDS011;68166;55.090;37.460;2023-06-22T20:11:27;6.07;;;3.08;;
78818;SDS011;68166;55.090;37.460;2023-06-22T20:16:45;4.97;;;2.35;;
78818;SDS011;68166;55.090;37.460;2023-06-22T20:21:48;6.25;;;2.30;;
78818;SDS011;68166;55.090;37.460;2023-06-22T20:26:50;3.75;;;2.03;;
78818;SDS011;68166;55.090;37.460;2023-06-22T20:32:08;4.72;;;1.98;;
78818;SDS011;68166;55.090;37.460;2023-06-22T20:37:16;5.68;;;2.03;;
78818;SDS011;68166;55.090;37.460;2023-06-22T20:42:29;10.38;;;2.35;;
78818;SDS011;68166;55.090;37.460;2023-06-22T20:47:31;3.47;;;1.77;;
78818;SDS011;68166;55.090;37.460;2023-06-22T20:52:33;5.10;;;1.67;;
78818;SDS011;68166;55.090;37.460;2023-06-22T20:57:35;4.38;;;1.55;;
78818;SDS011;68166;55.090;37.460;2023-06-22T21:02:58;7.18;;;1.98;;
78818;SDS011;68166;55.090;37.460;2023-06-22T21:08:01;3.85;;;1.63;;
78818;SDS011;68166;55.090;37.460;2023-06-22T21:13:05;4.03;;;1.98;;
78818;SDS011;68166;55.090;37.460;2023-06-22T21:18:07;5.13;;;2.08;;
78818;SDS011;68166;55.090;37.460;2023-06-22T21:23:09;4.13;;;1.55;;
78818;SDS011;68166;55.090;37.460;2023-06-22T21:28:11;4.07;;;1.70;;
78818;SDS011;68166;55.090;37.460;2023-06-22T21:33:13;4.57;;;1.58;;
78818;SDS011;68166;55.090;37.460;2023-06-22T21:38:15;5.53;;;2.13;;
78818;SDS011;68166;55.090;37.460;2023-06-22T21:43:17;2.95;;;1.65;;
78818;SDS011;68166;55.090;37.460;2023-06-22T21:48:19;2.70;;;1.38;;
78818;SDS011;68166;55.090;37.460;2023-06-22T21:53:21;2.65;;;1.30;;
78818;SDS011;68166;55.090;37.460;2023-06-22T21:58:23;1.92;;;1.13;;
78818;SDS011;68166;55.090;37.460;2023-06-22T22:03:25;3.75;;;1.65;;
78818;SDS011;68166;55.090;37.460;2023-06-22T22:08:27;3.92;;;2.03;;
78818;SDS011;68166;55.090;37.460;2023-06-22T22:13:29;3.45;;;1.52;;
78818;SDS011;68166;55.090;37.460;2023-06-22T22:18:33;3.30;;;1.42;;
78818;SDS011;68166;55.090;37.460;2023-06-22T22:23:35;2.80;;;1.30;;
78818;SDS011;68166;55.090;37.460;2023-06-22T22:28:37;3.95;;;1.73;;
78818;SDS011;68166;55.090;37.460;2023-06-22T22:33:43;4.07;;;1.80;;
78818;SDS011;68166;55.090;37.460;2023-06-22T22:38:47;6.25;;;1.50;;
78818;SDS011;68166;55.090;37.460;2023-06-22T22:43:49;4.45;;;1.50;;
78818;SDS011;68166;55.090;37.460;2023-06-22T22:48:51;2.97;;;1.70;;
78818;SDS011;68166;55.090;37.460;2023-06-22T22:53:53;5.20;;;1.80;;
78818;SDS011;68166;55.090;37.460;2023-06-22T22:58:55;4.85;;;1.55;;
78818;SDS011;68166;55.090;37.460;2023-06-22T23:03:57;4.38;;;1.98;;
78818;SDS011;68166;55.090;37.460;2023-06-22T23:08:59;7.68;;;1.92;;
78818;SDS011;68166;55.090;37.460;2023-06-22T23:14:01;3.50;;;1.75;;
78818;SDS011;68166;55.090;37.460;2023-06-22T23:19:03;5.07;;;1.60;;
78818;SDS011;68166;55.090;37.460;2023-06-22T23:24:05;4.10;;;1.83;;
78818;SDS011;68166;55.090;37.460;2023-06-22T23:29:11;3.67;;;2.00;;
78818;SDS011;68166;55.090;37.460;2023-06-22T23:34:13;5.57;;;1.95;;
78818;SDS011;68166;55.090;37.460;2023-06-22T23:39:15;3.22;;;1.58;;
78818;SDS011;68166;55.090;37.460;2023-06-22T23:44:17;5.13;;;2.00;;
78818;SDS011;68166;55.090;37.460;2023-06-22T23:49:19;4.05;;;1.92;;
78818;SDS011;68166;55.090;37.460;2023-06-22T23:54:21;4.00;;;2.03;;
78818;SDS011;68166;55.090;37.460;2023-06-22T23:59:23;5.43;;;1.85;;
